This is the latest recevied weather packets stored in our database for station/object OK1PMP-6. If no packets are shown the sender has not sent any weather packets the latest 10 day(s).
| Time | Temp. | Humidity | Pressure | Rain* | Wind** | Luminosity | Snow |
|---|---|---|---|---|---|---|---|
| 1777604930 | 0° C | 87% | 1032.8 hPa | 0 mm | - | 0 W/m² | - |
| 1777604025 | 0° C | 81% | 1032.6 hPa | 0 mm | - | 0 W/m² | - |
| 1777603125 | 0° C | 80% | 1032.4 hPa | 0 mm | - | 0 W/m² | - |
| 1777602225 | 0° C | 81% | 1032.7 hPa | 0 mm | - | 0 W/m² | - |
| 1777601324 | 0° C | 80% | 1032.3 hPa | 0 mm | - | 0 W/m² | - |
| 1777586030 | 2.78° C | 70% | 1032.4 hPa | 0 mm | - | 0 W/m² | - |
| 1777584224 | 3.33° C | 66% | 1032.5 hPa | 0 mm | - | 0 W/m² | - |
| 1777581524 | 4.44° C | 60% | 1032.5 hPa | 0 mm | - | 0 W/m² | - |
| 1777579724 | 5.56° C | 57% | 1032.6 hPa | 0 mm | - | 0 W/m² | - |
| 1777578827 | 6.67° C | 54% | 1032.4 hPa | 0 mm | - | 0 W/m² | - |
| 1777577026 | 8.33° C | 50% | 1032.3 hPa | 0 mm | - | 0 W/m² | - |
| 1777574324 | 10.56° C | 47% | 1031.8 hPa | 0 mm | - | 0 W/m² | - |
| 1777572526 | 12.22° C | 43% | 1031.7 hPa | 0 mm | - | 5 W/m² | - |
| 1777568923 | 14.44° C | 37% | 1031.3 hPa | 0 mm | - | 29 W/m² | - |
| 1777567124 | 15.56° C | 36% | 1031.5 hPa | 0 mm | - | 51 W/m² | - |
| 1777566228 | 16.11° C | 33% | 1031.5 hPa | 0 mm | - | 43 W/m² | - |
| 1777564442 | 16.67° C | 33% | 1031.4 hPa | 0 mm | - | 44 W/m² | - |
| 1777563550 | 17.22° C | 31% | 1031.6 hPa | 0 mm | - | 59 W/m² | - |
| 1777559927 | 15.56° C | 32% | 1032 hPa | 0 mm | - | 171 W/m² | - |
| 1777557224 | 19.44° C | 27% | 1032.4 hPa | 0 mm | - | 357 W/m² | - |
| 1777554524 | 18.33° C | 27% | 1032.8 hPa | 0 mm | - | 710 W/m² | - |
| 1777553629 | 18.33° C | 26% | 1032.6 hPa | 0 mm | - | 530 W/m² | - |
| 1777551826 | 16.67° C | 27% | 1033.2 hPa | 0 mm | - | 655 W/m² | - |
| 1777550926 | 16.67° C | 26% | 1033.3 hPa | 0 mm | - | 682 W/m² | - |
| 1777548226 | 15° C | 29% | 1033.9 hPa | 0 mm | - | 700 W/m² | - |
* Rain latest hour (hover to see other rain measurements)
** Current wind speed in m/s (hover to see current wind gust speed)